sensor_id;sensor_type;location;lat;lon;timestamp;P1;durP1;ratioP1;P2;durP2;ratioP2
65358;SDS011;52491;45.900;6.346;2023-06-22T00:02:08;9.82;;;4.97;;
65358;SDS011;52491;45.900;6.346;2023-06-22T00:04:33;12.20;;;4.35;;
65358;SDS011;52491;45.900;6.346;2023-06-22T00:06:59;9.98;;;4.65;;
65358;SDS011;52491;45.900;6.346;2023-06-22T00:09:24;15.45;;;5.50;;
65358;SDS011;52491;45.900;6.346;2023-06-22T00:11:50;12.43;;;4.05;;
65358;SDS011;52491;45.900;6.346;2023-06-22T00:14:16;10.68;;;4.50;;
65358;SDS011;52491;45.900;6.346;2023-06-22T00:16:41;15.27;;;5.32;;
65358;SDS011;52491;45.900;6.346;2023-06-22T00:19:07;15.60;;;4.60;;
65358;SDS011;52491;45.900;6.346;2023-06-22T00:21:35;11.60;;;4.75;;
65358;SDS011;52491;45.900;6.346;2023-06-22T00:24:02;11.73;;;5.13;;
65358;SDS011;52491;45.900;6.346;2023-06-22T00:26:28;13.95;;;5.47;;
65358;SDS011;52491;45.900;6.346;2023-06-22T00:28:53;11.27;;;5.28;;
65358;SDS011;52491;45.900;6.346;2023-06-22T00:31:19;12.35;;;5.55;;
65358;SDS011;52491;45.900;6.346;2023-06-22T00:33:45;11.40;;;4.40;;
65358;SDS011;52491;45.900;6.346;2023-06-22T00:36:10;11.55;;;4.75;;
65358;SDS011;52491;45.900;6.346;2023-06-22T00:38:38;25.85;;;5.20;;
65358;SDS011;52491;45.900;6.346;2023-06-22T00:41:05;11.65;;;4.93;;
65358;SDS011;52491;45.900;6.346;2023-06-22T00:43:30;12.45;;;4.63;;
65358;SDS011;52491;45.900;6.346;2023-06-22T00:45:56;12.82;;;5.57;;
65358;SDS011;52491;45.900;6.346;2023-06-22T00:48:22;10.90;;;5.63;;
65358;SDS011;52491;45.900;6.346;2023-06-22T00:50:47;8.40;;;4.80;;
65358;SDS011;52491;45.900;6.346;2023-06-22T00:53:16;8.55;;;4.95;;
65358;SDS011;52491;45.900;6.346;2023-06-22T00:55:43;14.23;;;5.85;;
65358;SDS011;52491;45.900;6.346;2023-06-22T00:58:12;10.77;;;5.22;;
65358;SDS011;52491;45.900;6.346;2023-06-22T01:00:38;11.18;;;4.45;;
65358;SDS011;52491;45.900;6.346;2023-06-22T01:03:04;10.30;;;4.85;;
65358;SDS011;52491;45.900;6.346;2023-06-22T01:05:33;11.80;;;4.63;;
65358;SDS011;52491;45.900;6.346;2023-06-22T01:08:04;11.93;;;5.13;;
65358;SDS011;52491;45.900;6.346;2023-06-22T01:10:48;12.05;;;5.80;;
65358;SDS011;52491;45.900;6.346;2023-06-22T01:13:26;12.63;;;6.15;;
65358;SDS011;52491;45.900;6.346;2023-06-22T01:16:00;16.77;;;6.32;;
65358;SDS011;52491;45.900;6.346;2023-06-22T01:18:30;13.50;;;5.30;;
65358;SDS011;52491;45.900;6.346;2023-06-22T01:20:58;15.18;;;5.80;;
65358;SDS011;52491;45.900;6.346;2023-06-22T01:23:27;18.65;;;5.63;;
65358;SDS011;52491;45.900;6.346;2023-06-22T01:28:46;15.55;;;5.25;;
65358;SDS011;52491;45.900;6.346;2023-06-22T01:31:18;13.00;;;5.38;;
65358;SDS011;52491;45.900;6.346;2023-06-22T01:33:49;13.60;;;4.60;;
65358;SDS011;52491;45.900;6.346;2023-06-22T01:36:18;8.40;;;4.30;;
65358;SDS011;52491;45.900;6.346;2023-06-22T01:38:45;10.27;;;5.82;;
65358;SDS011;52491;45.900;6.346;2023-06-22T01:41:12;13.15;;;5.30;;
65358;SDS011;52491;45.900;6.346;2023-06-22T01:43:38;11.30;;;6.07;;
65358;SDS011;52491;45.900;6.346;2023-06-22T01:46:05;12.80;;;6.20;;
65358;SDS011;52491;45.900;6.346;2023-06-22T01:48:31;10.70;;;6.00;;
65358;SDS011;52491;45.900;6.346;2023-06-22T01:50:57;12.18;;;5.45;;
65358;SDS011;52491;45.900;6.346;2023-06-22T01:53:23;10.70;;;4.45;;
65358;SDS011;52491;45.900;6.346;2023-06-22T01:55:49;13.93;;;5.63;;
65358;SDS011;52491;45.900;6.346;2023-06-22T01:58:15;14.02;;;5.13;;
65358;SDS011;52491;45.900;6.346;2023-06-22T02:00:45;15.63;;;6.10;;
65358;SDS011;52491;45.900;6.346;2023-06-22T02:03:30;10.95;;;5.63;;
65358;SDS011;52491;45.900;6.346;2023-06-22T02:06:04;12.27;;;5.03;;
65358;SDS011;52491;45.900;6.346;2023-06-22T02:08:55;12.90;;;4.70;;
65358;SDS011;52491;45.900;6.346;2023-06-22T02:11:24;12.43;;;5.28;;
65358;SDS011;52491;45.900;6.346;2023-06-22T02:13:52;12.45;;;4.97;;
65358;SDS011;52491;45.900;6.346;2023-06-22T02:16:19;9.15;;;4.65;;
65358;SDS011;52491;45.900;6.346;2023-06-22T02:18:49;21.05;;;5.35;;
65358;SDS011;52491;45.900;6.346;2023-06-22T02:21:18;11.63;;;5.00;;
65358;SDS011;52491;45.900;6.346;2023-06-22T02:23:45;16.05;;;5.97;;
65358;SDS011;52491;45.900;6.346;2023-06-22T02:26:11;13.38;;;4.78;;
65358;SDS011;52491;45.900;6.346;2023-06-22T02:28:37;8.43;;;4.43;;
65358;SDS011;52491;45.900;6.346;2023-06-22T02:31:03;14.40;;;4.70;;
65358;SDS011;52491;45.900;6.346;2023-06-22T02:33:28;12.13;;;5.25;;
65358;SDS011;52491;45.900;6.346;2023-06-22T02:35:54;12.70;;;5.60;;
65358;SDS011;52491;45.900;6.346;2023-06-22T02:38:19;10.63;;;4.03;;
65358;SDS011;52491;45.900;6.346;2023-06-22T02:40:45;10.80;;;4.22;;
65358;SDS011;52491;45.900;6.346;2023-06-22T02:43:11;13.95;;;5.28;;
65358;SDS011;52491;45.900;6.346;2023-06-22T02:45:37;10.20;;;3.85;;
65358;SDS011;52491;45.900;6.346;2023-06-22T02:48:03;10.60;;;5.10;;
65358;SDS011;52491;45.900;6.346;2023-06-22T02:50:28;15.73;;;5.28;;
65358;SDS011;52491;45.900;6.346;2023-06-22T02:52:54;10.57;;;4.28;;
65358;SDS011;52491;45.900;6.346;2023-06-22T02:55:19;12.68;;;4.13;;
65358;SDS011;52491;45.900;6.346;2023-06-22T02:57:45;10.55;;;4.75;;
65358;SDS011;52491;45.900;6.346;2023-06-22T03:00:13;9.43;;;4.90;;
65358;SDS011;52491;45.900;6.346;2023-06-22T03:02:46;13.48;;;5.40;;
65358;SDS011;52491;45.900;6.346;2023-06-22T03:05:13;11.57;;;4.75;;
65358;SDS011;52491;45.900;6.346;2023-06-22T03:07:42;9.98;;;4.60;;
65358;SDS011;52491;45.900;6.346;2023-06-22T03:10:09;18.27;;;5.10;;
65358;SDS011;52491;45.900;6.346;2023-06-22T03:12:37;9.60;;;4.88;;
65358;SDS011;52491;45.900;6.346;2023-06-22T03:15:11;12.40;;;4.40;;
65358;SDS011;52491;45.900;6.346;2023-06-22T03:17:38;8.55;;;4.30;;
65358;SDS011;52491;45.900;6.346;2023-06-22T03:20:05;14.32;;;4.25;;
65358;SDS011;52491;45.900;6.346;2023-06-22T03:22:38;16.67;;;5.80;;
65358;SDS011;52491;45.900;6.346;2023-06-22T03:25:06;13.32;;;4.65;;
65358;SDS011;52491;45.900;6.346;2023-06-22T03:27:39;14.35;;;5.72;;
65358;SDS011;52491;45.900;6.346;2023-06-22T03:30:07;8.25;;;4.32;;
65358;SDS011;52491;45.900;6.346;2023-06-22T03:32:34;18.20;;;5.32;;
65358;SDS011;52491;45.900;6.346;2023-06-22T03:34:59;10.23;;;4.78;;
65358;SDS011;52491;45.900;6.346;2023-06-22T03:37:26;11.20;;;4.32;;
65358;SDS011;52491;45.900;6.346;2023-06-22T03:39:52;11.32;;;4.32;;
65358;SDS011;52491;45.900;6.346;2023-06-22T03:42:18;13.75;;;5.75;;
65358;SDS011;52491;45.900;6.346;2023-06-22T03:44:43;21.00;;;5.63;;
65358;SDS011;52491;45.900;6.346;2023-06-22T03:47:09;11.50;;;5.43;;
65358;SDS011;52491;45.900;6.346;2023-06-22T03:49:34;18.77;;;5.97;;
65358;SDS011;52491;45.900;6.346;2023-06-22T03:52:01;8.80;;;4.38;;
65358;SDS011;52491;45.900;6.346;2023-06-22T03:54:28;10.05;;;4.20;;
65358;SDS011;52491;45.900;6.346;2023-06-22T03:56:54;10.68;;;4.70;;
65358;SDS011;52491;45.900;6.346;2023-06-22T03:59:22;14.77;;;4.60;;
65358;SDS011;52491;45.900;6.346;2023-06-22T04:01:48;14.32;;;4.47;;
65358;SDS011;52491;45.900;6.346;2023-06-22T04:04:13;12.13;;;4.93;;
65358;SDS011;52491;45.900;6.346;2023-06-22T04:06:39;16.40;;;5.95;;
65358;SDS011;52491;45.900;6.346;2023-06-22T04:09:08;17.58;;;4.72;;
65358;SDS011;52491;45.900;6.346;2023-06-22T04:11:33;8.75;;;4.82;;
65358;SDS011;52491;45.900;6.346;2023-06-22T04:13:59;12.13;;;4.57;;
65358;SDS011;52491;45.900;6.346;2023-06-22T04:16:25;10.52;;;4.63;;
65358;SDS011;52491;45.900;6.346;2023-06-22T04:18:50;17.58;;;4.72;;
65358;SDS011;52491;45.900;6.346;2023-06-22T04:21:16;11.82;;;4.88;;
65358;SDS011;52491;45.900;6.346;2023-06-22T04:23:42;13.90;;;4.13;;
65358;SDS011;52491;45.900;6.346;2023-06-22T04:26:08;10.85;;;4.93;;
65358;SDS011;52491;45.900;6.346;2023-06-22T04:28:33;9.82;;;4.95;;
65358;SDS011;52491;45.900;6.346;2023-06-22T04:31:03;17.88;;;4.93;;
65358;SDS011;52491;45.900;6.346;2023-06-22T04:33:29;15.05;;;5.00;;
65358;SDS011;52491;45.900;6.346;2023-06-22T04:35:54;13.73;;;5.55;;
65358;SDS011;52491;45.900;6.346;2023-06-22T04:38:26;17.42;;;4.68;;
65358;SDS011;52491;45.900;6.346;2023-06-22T04:40:52;6.72;;;4.63;;
65358;SDS011;52491;45.900;6.346;2023-06-22T04:43:18;43.63;;;6.53;;
65358;SDS011;52491;45.900;6.346;2023-06-22T04:45:44;18.75;;;5.80;;
65358;SDS011;52491;45.900;6.346;2023-06-22T04:48:10;19.35;;;6.38;;
65358;SDS011;52491;45.900;6.346;2023-06-22T04:50:40;11.35;;;4.70;;
65358;SDS011;52491;45.900;6.346;2023-06-22T04:53:06;16.42;;;6.68;;
65358;SDS011;52491;45.900;6.346;2023-06-22T04:55:32;15.02;;;5.93;;
65358;SDS011;52491;45.900;6.346;2023-06-22T04:57:58;14.68;;;6.28;;
65358;SDS011;52491;45.900;6.346;2023-06-22T05:00:30;16.50;;;5.22;;
65358;SDS011;52491;45.900;6.346;2023-06-22T05:02:56;14.27;;;5.45;;
65358;SDS011;52491;45.900;6.346;2023-06-22T05:05:23;15.70;;;4.90;;
65358;SDS011;52491;45.900;6.346;2023-06-22T05:07:50;15.88;;;5.78;;
65358;SDS011;52491;45.900;6.346;2023-06-22T05:10:18;17.92;;;6.45;;
65358;SDS011;52491;45.900;6.346;2023-06-22T05:12:45;16.58;;;5.03;;
65358;SDS011;52491;45.900;6.346;2023-06-22T05:15:12;20.00;;;6.07;;
65358;SDS011;52491;45.900;6.346;2023-06-22T05:17:40;17.60;;;6.05;;
65358;SDS011;52491;45.900;6.346;2023-06-22T05:20:16;17.80;;;6.53;;
65358;SDS011;52491;45.900;6.346;2023-06-22T05:22:43;13.65;;;5.20;;
65358;SDS011;52491;45.900;6.346;2023-06-22T05:25:09;19.27;;;4.80;;
65358;SDS011;52491;45.900;6.346;2023-06-22T05:27:36;12.95;;;5.38;;
65358;SDS011;52491;45.900;6.346;2023-06-22T05:30:05;21.17;;;6.50;;
65358;SDS011;52491;45.900;6.346;2023-06-22T05:32:32;12.35;;;5.30;;
65358;SDS011;52491;45.900;6.346;2023-06-22T05:34:58;14.07;;;5.78;;
65358;SDS011;52491;45.900;6.346;2023-06-22T05:37:24;20.77;;;5.78;;
65358;SDS011;52491;45.900;6.346;2023-06-22T05:39:50;15.18;;;6.53;;
65358;SDS011;52491;45.900;6.346;2023-06-22T05:42:15;16.75;;;6.10;;
65358;SDS011;52491;45.900;6.346;2023-06-22T05:44:41;18.83;;;5.75;;
65358;SDS011;52491;45.900;6.346;2023-06-22T05:47:07;15.65;;;5.32;;
65358;SDS011;52491;45.900;6.346;2023-06-22T05:49:32;17.42;;;5.57;;
65358;SDS011;52491;45.900;6.346;2023-06-22T05:51:58;12.77;;;5.38;;
65358;SDS011;52491;45.900;6.346;2023-06-22T05:54:25;18.88;;;6.38;;
65358;SDS011;52491;45.900;6.346;2023-06-22T05:56:52;15.82;;;6.22;;
65358;SDS011;52491;45.900;6.346;2023-06-22T05:59:17;13.57;;;5.68;;
65358;SDS011;52491;45.900;6.346;2023-06-22T06:01:43;13.32;;;5.55;;
65358;SDS011;52491;45.900;6.346;2023-06-22T06:04:09;15.63;;;6.72;;
65358;SDS011;52491;45.900;6.346;2023-06-22T06:06:34;16.05;;;5.25;;
65358;SDS011;52491;45.900;6.346;2023-06-22T06:09:02;9.65;;;5.30;;
65358;SDS011;52491;45.900;6.346;2023-06-22T06:11:29;17.77;;;6.32;;
65358;SDS011;52491;45.900;6.346;2023-06-22T06:13:55;7.22;;;4.30;;
65358;SDS011;52491;45.900;6.346;2023-06-22T06:16:21;18.60;;;6.45;;
65358;SDS011;52491;45.900;6.346;2023-06-22T06:18:47;13.80;;;5.38;;
65358;SDS011;52491;45.900;6.346;2023-06-22T06:21:14;11.27;;;4.40;;
65358;SDS011;52491;45.900;6.346;2023-06-22T06:23:40;8.50;;;5.05;;
65358;SDS011;52491;45.900;6.346;2023-06-22T06:26:06;10.15;;;4.78;;
65358;SDS011;52491;45.900;6.346;2023-06-22T06:28:32;14.20;;;5.63;;
65358;SDS011;52491;45.900;6.346;2023-06-22T06:30:58;10.45;;;4.65;;
65358;SDS011;52491;45.900;6.346;2023-06-22T06:33:24;10.30;;;5.32;;
65358;SDS011;52491;45.900;6.346;2023-06-22T06:35:49;12.88;;;5.70;;
65358;SDS011;52491;45.900;6.346;2023-06-22T06:38:15;14.93;;;5.13;;
65358;SDS011;52491;45.900;6.346;2023-06-22T06:40:40;20.65;;;4.88;;
65358;SDS011;52491;45.900;6.346;2023-06-22T06:43:06;11.20;;;4.30;;
65358;SDS011;52491;45.900;6.346;2023-06-22T06:45:31;8.55;;;3.65;;
65358;SDS011;52491;45.900;6.346;2023-06-22T06:47:59;15.40;;;4.97;;
65358;SDS011;52491;45.900;6.346;2023-06-22T06:50:25;10.90;;;5.30;;
65358;SDS011;52491;45.900;6.346;2023-06-22T06:52:50;9.80;;;4.00;;
65358;SDS011;52491;45.900;6.346;2023-06-22T06:55:16;11.10;;;4.28;;
65358;SDS011;52491;45.900;6.346;2023-06-22T06:57:42;8.07;;;5.00;;
65358;SDS011;52491;45.900;6.346;2023-06-22T07:00:12;9.57;;;4.68;;
65358;SDS011;52491;45.900;6.346;2023-06-22T07:02:42;9.77;;;4.32;;
65358;SDS011;52491;45.900;6.346;2023-06-22T07:05:09;6.95;;;4.18;;
65358;SDS011;52491;45.900;6.346;2023-06-22T07:07:36;14.40;;;4.90;;
65358;SDS011;52491;45.900;6.346;2023-06-22T07:10:02;11.02;;;3.67;;
65358;SDS011;52491;45.900;6.346;2023-06-22T07:12:29;9.20;;;3.70;;
65358;SDS011;52491;45.900;6.346;2023-06-22T07:15:00;9.55;;;4.70;;
65358;SDS011;52491;45.900;6.346;2023-06-22T07:17:30;8.57;;;4.22;;
65358;SDS011;52491;45.900;6.346;2023-06-22T07:19:55;10.20;;;4.88;;
65358;SDS011;52491;45.900;6.346;2023-06-22T07:22:21;13.15;;;4.95;;
65358;SDS011;52491;45.900;6.346;2023-06-22T07:24:46;6.78;;;4.05;;
65358;SDS011;52491;45.900;6.346;2023-06-22T07:27:12;10.88;;;5.05;;
65358;SDS011;52491;45.900;6.346;2023-06-22T07:29:37;13.35;;;4.18;;
65358;SDS011;52491;45.900;6.346;2023-06-22T07:32:05;9.57;;;4.03;;
65358;SDS011;52491;45.900;6.346;2023-06-22T07:34:31;10.68;;;4.38;;
65358;SDS011;52491;45.900;6.346;2023-06-22T07:36:58;11.40;;;4.50;;
65358;SDS011;52491;45.900;6.346;2023-06-22T07:39:24;7.18;;;4.25;;
65358;SDS011;52491;45.900;6.346;2023-06-22T07:41:51;12.10;;;4.45;;
65358;SDS011;52491;45.900;6.346;2023-06-22T07:44:17;6.22;;;4.13;;
65358;SDS011;52491;45.900;6.346;2023-06-22T07:46:42;12.05;;;4.88;;
65358;SDS011;52491;45.900;6.346;2023-06-22T07:49:08;11.23;;;4.05;;
65358;SDS011;52491;45.900;6.346;2023-06-22T07:51:34;9.93;;;3.80;;
65358;SDS011;52491;45.900;6.346;2023-06-22T07:53:59;7.55;;;4.03;;
65358;SDS011;52491;45.900;6.346;2023-06-22T07:56:25;8.18;;;3.08;;
65358;SDS011;52491;45.900;6.346;2023-06-22T07:58:51;5.97;;;3.83;;
65358;SDS011;52491;45.900;6.346;2023-06-22T08:01:16;6.65;;;4.05;;
65358;SDS011;52491;45.900;6.346;2023-06-22T08:03:44;8.80;;;4.13;;
65358;SDS011;52491;45.900;6.346;2023-06-22T08:06:10;7.90;;;4.00;;
65358;SDS011;52491;45.900;6.346;2023-06-22T08:08:36;10.00;;;3.58;;
65358;SDS011;52491;45.900;6.346;2023-06-22T08:11:02;6.93;;;3.65;;
65358;SDS011;52491;45.900;6.346;2023-06-22T08:13:28;8.73;;;3.92;;
65358;SDS011;52491;45.900;6.346;2023-06-22T08:15:54;11.55;;;4.63;;
65358;SDS011;52491;45.900;6.346;2023-06-22T08:18:19;8.73;;;3.95;;
65358;SDS011;52491;45.900;6.346;2023-06-22T08:20:45;5.13;;;3.58;;
65358;SDS011;52491;45.900;6.346;2023-06-22T08:23:10;8.77;;;3.78;;
65358;SDS011;52491;45.900;6.346;2023-06-22T08:25:36;8.45;;;4.07;;
65358;SDS011;52491;45.900;6.346;2023-06-22T08:28:02;7.20;;;3.50;;
65358;SDS011;52491;45.900;6.346;2023-06-22T08:30:28;13.75;;;4.15;;
65358;SDS011;52491;45.900;6.346;2023-06-22T08:32:54;7.40;;;3.75;;
65358;SDS011;52491;45.900;6.346;2023-06-22T08:35:21;8.52;;;4.22;;
65358;SDS011;52491;45.900;6.346;2023-06-22T08:37:48;5.70;;;3.33;;
65358;SDS011;52491;45.900;6.346;2023-06-22T08:40:20;7.03;;;3.78;;
65358;SDS011;52491;45.900;6.346;2023-06-22T08:42:46;7.78;;;4.07;;
65358;SDS011;52491;45.900;6.346;2023-06-22T08:45:12;8.43;;;4.05;;
65358;SDS011;52491;45.900;6.346;2023-06-22T08:47:39;8.88;;;3.30;;
65358;SDS011;52491;45.900;6.346;2023-06-22T08:50:06;11.20;;;3.80;;
65358;SDS011;52491;45.900;6.346;2023-06-22T08:52:33;7.40;;;3.53;;
65358;SDS011;52491;45.900;6.346;2023-06-22T08:54:59;8.77;;;3.25;;
65358;SDS011;52491;45.900;6.346;2023-06-22T08:57:25;6.53;;;3.38;;
65358;SDS011;52491;45.900;6.346;2023-06-22T08:59:51;8.65;;;3.08;;
65358;SDS011;52491;45.900;6.346;2023-06-22T09:02:23;7.53;;;3.70;;
65358;SDS011;52491;45.900;6.346;2023-06-22T09:04:49;6.35;;;3.88;;
65358;SDS011;52491;45.900;6.346;2023-06-22T09:07:20;8.85;;;3.60;;
65358;SDS011;52491;45.900;6.346;2023-06-22T09:09:48;6.60;;;3.08;;
65358;SDS011;52491;45.900;6.346;2023-06-22T09:12:14;6.53;;;3.78;;
65358;SDS011;52491;45.900;6.346;2023-06-22T09:14:40;5.75;;;3.08;;
65358;SDS011;52491;45.900;6.346;2023-06-22T09:17:05;6.35;;;2.90;;
65358;SDS011;52491;45.900;6.346;2023-06-22T09:19:31;8.20;;;3.55;;
65358;SDS011;52491;45.900;6.346;2023-06-22T09:21:57;8.50;;;3.28;;
65358;SDS011;52491;45.900;6.346;2023-06-22T09:24:22;4.70;;;2.92;;
65358;SDS011;52491;45.900;6.346;2023-06-22T09:26:48;8.73;;;3.47;;
65358;SDS011;52491;45.900;6.346;2023-06-22T09:29:14;5.38;;;3.53;;
65358;SDS011;52491;45.900;6.346;2023-06-22T09:31:39;6.70;;;3.13;;
65358;SDS011;52491;45.900;6.346;2023-06-22T09:34:05;9.77;;;3.10;;
65358;SDS011;52491;45.900;6.346;2023-06-22T09:36:30;4.47;;;2.88;;
65358;SDS011;52491;45.900;6.346;2023-06-22T09:38:56;4.30;;;2.75;;
65358;SDS011;52491;45.900;6.346;2023-06-22T09:41:23;6.45;;;3.20;;
65358;SDS011;52491;45.900;6.346;2023-06-22T09:43:49;5.47;;;2.78;;
65358;SDS011;52491;45.900;6.346;2023-06-22T09:46:15;5.32;;;2.95;;
65358;SDS011;52491;45.900;6.346;2023-06-22T09:48:41;10.57;;;4.18;;
65358;SDS011;52491;45.900;6.346;2023-06-22T09:51:07;4.95;;;2.80;;
65358;SDS011;52491;45.900;6.346;2023-06-22T09:53:32;5.00;;;2.80;;
65358;SDS011;52491;45.900;6.346;2023-06-22T09:55:59;7.65;;;2.50;;
65358;SDS011;52491;45.900;6.346;2023-06-22T09:58:26;9.15;;;3.60;;
65358;SDS011;52491;45.900;6.346;2023-06-22T10:00:52;4.30;;;3.08;;
65358;SDS011;52491;45.900;6.346;2023-06-22T10:03:19;3.92;;;3.25;;
65358;SDS011;52491;45.900;6.346;2023-06-22T10:05:45;6.30;;;3.17;;
65358;SDS011;52491;45.900;6.346;2023-06-22T10:08:11;4.47;;;2.85;;
65358;SDS011;52491;45.900;6.346;2023-06-22T10:10:37;5.10;;;2.92;;
65358;SDS011;52491;45.900;6.346;2023-06-22T10:13:07;4.90;;;3.05;;
65358;SDS011;52491;45.900;6.346;2023-06-22T10:15:37;4.18;;;2.53;;
65358;SDS011;52491;45.900;6.346;2023-06-22T10:18:03;6.80;;;3.42;;
65358;SDS011;52491;45.900;6.346;2023-06-22T10:20:29;8.05;;;3.00;;
65358;SDS011;52491;45.900;6.346;2023-06-22T10:22:55;8.23;;;3.83;;
65358;SDS011;52491;45.900;6.346;2023-06-22T10:25:20;4.25;;;2.40;;
65358;SDS011;52491;45.900;6.346;2023-06-22T10:27:46;3.78;;;2.47;;
65358;SDS011;52491;45.900;6.346;2023-06-22T10:30:12;5.90;;;3.20;;
65358;SDS011;52491;45.900;6.346;2023-06-22T10:32:39;6.88;;;2.45;;
65358;SDS011;52491;45.900;6.346;2023-06-22T10:35:06;4.38;;;2.47;;
65358;SDS011;52491;45.900;6.346;2023-06-22T10:37:31;6.43;;;2.65;;
65358;SDS011;52491;45.900;6.346;2023-06-22T10:39:57;4.75;;;2.80;;
65358;SDS011;52491;45.900;6.346;2023-06-22T10:42:23;4.63;;;2.55;;
65358;SDS011;52491;45.900;6.346;2023-06-22T10:44:48;5.75;;;2.90;;
65358;SDS011;52491;45.900;6.346;2023-06-22T10:47:14;5.43;;;2.63;;
65358;SDS011;52491;45.900;6.346;2023-06-22T10:49:40;3.45;;;2.35;;
65358;SDS011;52491;45.900;6.346;2023-06-22T10:52:06;4.10;;;2.47;;
65358;SDS011;52491;45.900;6.346;2023-06-22T10:54:33;6.38;;;3.05;;
65358;SDS011;52491;45.900;6.346;2023-06-22T10:56:59;4.18;;;2.20;;
65358;SDS011;52491;45.900;6.346;2023-06-22T10:59:25;4.70;;;2.35;;
65358;SDS011;52491;45.900;6.346;2023-06-22T11:01:51;3.78;;;2.28;;
65358;SDS011;52491;45.900;6.346;2023-06-22T11:04:17;2.72;;;2.00;;
65358;SDS011;52491;45.900;6.346;2023-06-22T11:06:43;5.68;;;2.63;;
65358;SDS011;52491;45.900;6.346;2023-06-22T11:09:08;5.35;;;2.78;;
65358;SDS011;52491;45.900;6.346;2023-06-22T11:11:34;9.90;;;2.88;;
65358;SDS011;52491;45.900;6.346;2023-06-22T11:13:59;4.13;;;2.28;;
65358;SDS011;52491;45.900;6.346;2023-06-22T11:16:25;4.72;;;3.17;;
65358;SDS011;52491;45.900;6.346;2023-06-22T11:18:51;4.90;;;2.53;;
65358;SDS011;52491;45.900;6.346;2023-06-22T11:21:16;2.83;;;2.47;;
65358;SDS011;52491;45.900;6.346;2023-06-22T11:23:42;4.20;;;2.45;;
65358;SDS011;52491;45.900;6.346;2023-06-22T11:26:07;3.65;;;2.15;;
65358;SDS011;52491;45.900;6.346;2023-06-22T11:28:33;5.43;;;2.38;;
65358;SDS011;52491;45.900;6.346;2023-06-22T11:30:59;3.50;;;2.13;;
65358;SDS011;52491;45.900;6.346;2023-06-22T11:33:24;3.92;;;2.35;;
65358;SDS011;52491;45.900;6.346;2023-06-22T11:35:50;4.13;;;2.35;;
65358;SDS011;52491;45.900;6.346;2023-06-22T11:38:15;2.47;;;1.77;;
65358;SDS011;52491;45.900;6.346;2023-06-22T11:40:41;4.07;;;2.17;;
65358;SDS011;52491;45.900;6.346;2023-06-22T11:43:07;4.47;;;2.60;;
65358;SDS011;52491;45.900;6.346;2023-06-22T11:45:33;5.18;;;3.05;;
65358;SDS011;52491;45.900;6.346;2023-06-22T11:47:58;12.70;;;7.15;;
65358;SDS011;52491;45.900;6.346;2023-06-22T11:50:24;15.57;;;8.30;;
65358;SDS011;52491;45.900;6.346;2023-06-22T11:52:49;13.70;;;7.57;;
65358;SDS011;52491;45.900;6.346;2023-06-22T11:55:15;10.70;;;8.15;;
65358;SDS011;52491;45.900;6.346;2023-06-22T11:57:54;11.48;;;6.95;;
65358;SDS011;52491;45.900;6.346;2023-06-22T12:00:21;16.98;;;8.13;;
65358;SDS011;52491;45.900;6.346;2023-06-22T12:02:48;13.45;;;8.60;;
65358;SDS011;52491;45.900;6.346;2023-06-22T12:05:16;13.52;;;7.25;;
65358;SDS011;52491;45.900;6.346;2023-06-22T12:07:41;20.63;;;9.30;;
65358;SDS011;52491;45.900;6.346;2023-06-22T12:10:07;15.68;;;9.00;;
65358;SDS011;52491;45.900;6.346;2023-06-22T12:12:33;16.33;;;8.50;;
65358;SDS011;52491;45.900;6.346;2023-06-22T12:14:58;15.82;;;8.10;;
65358;SDS011;52491;45.900;6.346;2023-06-22T12:17:28;12.65;;;8.73;;
65358;SDS011;52491;45.900;6.346;2023-06-22T12:19:54;18.58;;;7.03;;
65358;SDS011;52491;45.900;6.346;2023-06-22T12:22:19;15.50;;;6.18;;
65358;SDS011;52491;45.900;6.346;2023-06-22T12:24:45;9.38;;;6.05;;
65358;SDS011;52491;45.900;6.346;2023-06-22T12:27:10;12.68;;;6.47;;
65358;SDS011;52491;45.900;6.346;2023-06-22T12:29:36;11.07;;;5.60;;
65358;SDS011;52491;45.900;6.346;2023-06-22T12:32:01;13.02;;;5.80;;
65358;SDS011;52491;45.900;6.346;2023-06-22T12:34:27;7.38;;;4.40;;
65358;SDS011;52491;45.900;6.346;2023-06-22T12:36:53;12.32;;;3.85;;
65358;SDS011;52491;45.900;6.346;2023-06-22T12:39:19;9.40;;;4.75;;
65358;SDS011;52491;45.900;6.346;2023-06-22T12:41:45;9.65;;;4.60;;
65358;SDS011;52491;45.900;6.346;2023-06-22T12:44:11;6.72;;;3.95;;
65358;SDS011;52491;45.900;6.346;2023-06-22T12:46:36;9.27;;;5.18;;
65358;SDS011;52491;45.900;6.346;2023-06-22T12:49:06;8.35;;;4.18;;
65358;SDS011;52491;45.900;6.346;2023-06-22T12:51:31;6.88;;;4.10;;
65358;SDS011;52491;45.900;6.346;2023-06-22T12:53:57;8.27;;;4.78;;
65358;SDS011;52491;45.900;6.346;2023-06-22T12:56:22;8.10;;;3.58;;
65358;SDS011;52491;45.900;6.346;2023-06-22T12:58:48;6.53;;;3.33;;
65358;SDS011;52491;45.900;6.346;2023-06-22T13:01:13;7.20;;;3.83;;
65358;SDS011;52491;45.900;6.346;2023-06-22T13:03:39;6.22;;;3.22;;
65358;SDS011;52491;45.900;6.346;2023-06-22T13:06:05;7.65;;;4.53;;
65358;SDS011;52491;45.900;6.346;2023-06-22T13:08:31;5.30;;;3.38;;
65358;SDS011;52491;45.900;6.346;2023-06-22T13:10:56;4.95;;;3.40;;
65358;SDS011;52491;45.900;6.346;2023-06-22T13:13:25;11.80;;;3.92;;
65358;SDS011;52491;45.900;6.346;2023-06-22T13:15:52;8.88;;;4.22;;
65358;SDS011;52491;45.900;6.346;2023-06-22T13:18:19;8.13;;;3.88;;
65358;SDS011;52491;45.900;6.346;2023-06-22T13:20:44;9.48;;;4.05;;
65358;SDS011;52491;45.900;6.346;2023-06-22T13:23:11;7.72;;;4.25;;
65358;SDS011;52491;45.900;6.346;2023-06-22T13:25:37;7.80;;;4.13;;
65358;SDS011;52491;45.900;6.346;2023-06-22T13:28:03;11.35;;;4.43;;
65358;SDS011;52491;45.900;6.346;2023-06-22T13:30:28;10.00;;;4.50;;
65358;SDS011;52491;45.900;6.346;2023-06-22T13:32:55;9.77;;;4.03;;
65358;SDS011;52491;45.900;6.346;2023-06-22T13:35:21;11.95;;;4.13;;
65358;SDS011;52491;45.900;6.346;2023-06-22T13:37:46;8.43;;;3.95;;
65358;SDS011;52491;45.900;6.346;2023-06-22T13:40:12;9.30;;;4.10;;
65358;SDS011;52491;45.900;6.346;2023-06-22T13:42:37;7.18;;;3.67;;
65358;SDS011;52491;45.900;6.346;2023-06-22T13:45:03;10.00;;;4.07;;
65358;SDS011;52491;45.900;6.346;2023-06-22T13:47:30;10.27;;;4.10;;
65358;SDS011;52491;45.900;6.346;2023-06-22T13:49:56;6.07;;;3.08;;
65358;SDS011;52491;45.900;6.346;2023-06-22T13:52:22;9.43;;;3.78;;
65358;SDS011;52491;45.900;6.346;2023-06-22T13:54:48;7.07;;;3.78;;
65358;SDS011;52491;45.900;6.346;2023-06-22T13:57:14;7.95;;;3.15;;
65358;SDS011;52491;45.900;6.346;2023-06-22T13:59:39;7.25;;;3.95;;
65358;SDS011;52491;45.900;6.346;2023-06-22T14:02:05;9.70;;;3.88;;
65358;SDS011;52491;45.900;6.346;2023-06-22T14:04:31;7.30;;;3.80;;
65358;SDS011;52491;45.900;6.346;2023-06-22T14:06:57;6.00;;;3.47;;
65358;SDS011;52491;45.900;6.346;2023-06-22T14:09:22;4.35;;;2.80;;
65358;SDS011;52491;45.900;6.346;2023-06-22T14:11:48;5.72;;;3.72;;
65358;SDS011;52491;45.900;6.346;2023-06-22T14:14:13;8.15;;;4.32;;
65358;SDS011;52491;45.900;6.346;2023-06-22T14:16:39;8.90;;;4.30;;
65358;SDS011;52491;45.900;6.346;2023-06-22T14:19:04;7.35;;;2.92;;
65358;SDS011;52491;45.900;6.346;2023-06-22T14:21:30;8.80;;;3.90;;
65358;SDS011;52491;45.900;6.346;2023-06-22T14:23:55;8.25;;;3.13;;
65358;SDS011;52491;45.900;6.346;2023-06-22T14:26:24;8.52;;;3.13;;
65358;SDS011;52491;45.900;6.346;2023-06-22T14:28:49;10.07;;;3.65;;
65358;SDS011;52491;45.900;6.346;2023-06-22T14:31:15;7.75;;;3.30;;
65358;SDS011;52491;45.900;6.346;2023-06-22T14:33:45;7.88;;;3.30;;
65358;SDS011;52491;45.900;6.346;2023-06-22T14:36:15;7.90;;;3.38;;
65358;SDS011;52491;45.900;6.346;2023-06-22T14:38:42;11.40;;;5.07;;
65358;SDS011;52491;45.900;6.346;2023-06-22T14:41:11;38.63;;;4.70;;